Time;durP1;ratioP1;P1;durP2;ratioP2;P2;SDS_P1;SDS_P2;PMS_P1;PMS_P2;Temp;Humidity;BMP_temperature;BMP_pressure;BME280_temperature;BME280_humidity;BME280_pressure;Samples;Min_cycle;Max_cycle;Signal;HPM_P1;HPM_P2
2023/12/25 00:01:27;;;;;;;1.65;0.90;;;18.10;57.20;;;;;;5093722;28;20305;-60
2023/12/25 00:03:53;;;;;;;0.80;0.60;;;18.10;57.80;;;;;;5093105;28;20224;-61
2023/12/25 00:06:22;;;;;;;1.88;0.82;;;18.00;57.20;;;;;;5093811;28;20666;-62
2023/12/25 00:08:51;;;;;;;1.75;0.75;;;18.00;57.10;;;;;;5093557;28;20190;-62
2023/12/25 00:11:18;;;;;;;2.05;0.77;;;18.10;57.20;;;;;;5093215;28;20542;-62
2023/12/25 00:13:47;;;;;;;1.23;0.70;;;18.00;57.10;;;;;;5092302;28;20324;-62
2023/12/25 00:16:15;;;;;;;2.08;0.70;;;18.00;57.70;;;;;;5093260;28;20214;-62
2023/12/25 00:18:42;;;;;;;1.00;0.65;;;18.00;57.20;;;;;;5092611;28;20247;-61
2023/12/25 00:21:09;;;;;;;1.80;0.75;;;18.00;57.20;;;;;;5093075;28;20226;-61
2023/12/25 00:23:36;;;;;;;1.38;1.02;;;18.00;57.20;;;;;;5093229;28;20214;-62
2023/12/25 00:26:03;;;;;;;1.88;0.75;;;18.00;57.80;;;;;;5092857;28;20220;-61
2023/12/25 00:28:30;;;;;;;1.45;0.60;;;18.00;57.20;;;;;;5093104;28;20270;-61
2023/12/25 00:30:57;;;;;;;1.10;0.80;;;18.00;57.20;;;;;;5092715;28;20707;-62
2023/12/25 00:33:25;;;;;;;1.13;0.57;;;18.00;57.90;;;;;;5092767;28;20196;-63
2023/12/25 00:35:52;;;;;;;1.88;0.77;;;18.00;57.20;;;;;;5092869;28;20305;-62
2023/12/25 00:38:19;;;;;;;2.20;0.88;;;18.00;57.90;;;;;;5092979;28;20247;-62
2023/12/25 00:40:46;;;;;;;0.98;0.60;;;18.00;57.30;;;;;;5092623;28;20256;-62
2023/12/25 00:43:13;;;;;;;1.33;0.70;;;18.00;57.20;;;;;;5092864;28;20582;-62
2023/12/25 00:45:40;;;;;;;1.58;0.70;;;18.00;57.30;;;;;;5092867;28;20225;-62
2023/12/25 00:48:07;;;;;;;2.03;0.73;;;18.00;57.40;;;;;;5092639;28;20186;-62
2023/12/25 00:50:35;;;;;;;0.88;0.60;;;18.00;57.30;;;;;;5092733;28;20303;-61
2023/12/25 00:53:02;;;;;;;0.68;0.68;;;18.00;57.40;;;;;;5092725;28;20194;-62
2023/12/25 00:55:29;;;;;;;1.98;0.60;;;18.00;57.30;;;;;;5092376;28;20281;-61
2023/12/25 00:57:55;;;;;;;1.30;0.90;;;18.00;58.00;;;;;;5092882;28;20197;-62
2023/12/25 01:00:22;;;;;;;1.48;0.70;;;18.00;57.40;;;;;;5092677;28;20388;-62
2023/12/25 01:02:49;;;;;;;1.60;0.80;;;18.00;57.40;;;;;;5092022;28;20655;-62
2023/12/25 01:05:16;;;;;;;1.77;0.70;;;18.00;57.40;;;;;;5092170;28;20182;-62
2023/12/25 01:07:45;;;;;;;1.60;0.80;;;18.00;57.40;;;;;;5092630;28;20189;-62
2023/12/25 01:10:12;;;;;;;0.90;0.80;;;18.00;57.40;;;;;;5092313;28;20225;-62
2023/12/25 01:12:38;;;;;;;1.05;0.50;;;18.00;58.10;;;;;;5092429;28;20309;-62
2023/12/25 01:15:06;;;;;;;1.75;0.98;;;18.00;57.50;;;;;;5092609;28;20774;-62
2023/12/25 01:17:33;;;;;;;1.75;0.82;;;18.00;57.50;;;;;;5091792;28;20218;-62
2023/12/25 01:20:00;;;;;;;1.48;0.82;;;18.00;57.50;;;;;;5092346;28;20281;-61
2023/12/25 01:22:27;;;;;;;3.20;0.70;;;18.00;58.20;;;;;;5092669;28;20245;-62
2023/12/25 01:24:55;;;;;;;2.10;1.05;;;18.00;57.60;;;;;;5094508;28;20690;-62
2023/12/25 01:27:22;;;;;;;1.90;0.68;;;18.00;57.60;;;;;;5099719;28;20654;-61
2023/12/25 01:29:48;;;;;;;1.35;0.80;;;18.00;57.50;;;;;;5098773;28;20551;-62
2023/12/25 01:32:15;;;;;;;0.93;0.73;;;18.00;57.60;;;;;;5099141;28;20304;-61
2023/12/25 01:34:42;;;;;;;1.33;0.80;;;18.00;57.60;;;;;;5098903;28;20288;-62
2023/12/25 01:37:09;;;;;;;2.20;0.82;;;18.00;57.60;;;;;;5098907;28;20228;-61
2023/12/25 01:39:36;;;;;;;1.23;0.70;;;18.00;57.60;;;;;;5098794;28;20280;-62
2023/12/25 01:42:05;;;;;;;2.58;0.60;;;18.00;57.60;;;;;;5098769;28;20304;-62
2023/12/25 01:44:32;;;;;;;1.35;0.80;;;18.00;57.60;;;;;;5098921;28;20300;-62
2023/12/25 01:46:59;;;;;;;1.42;0.75;;;18.00;57.70;;;;;;5098747;28;20671;-63
2023/12/25 01:49:26;;;;;;;1.77;0.80;;;18.00;57.60;;;;;;5098598;28;20190;-62
2023/12/25 01:51:53;;;;;;;1.58;0.68;;;18.00;57.60;;;;;;5098852;28;20650;-61
2023/12/25 01:54:20;;;;;;;1.63;0.70;;;18.00;57.60;;;;;;5098902;28;20186;-62
2023/12/25 01:56:47;;;;;;;1.83;0.82;;;18.00;57.60;;;;;;5098621;28;20300;-61
2023/12/25 01:59:15;;;;;;;2.55;0.80;;;18.00;57.70;;;;;;5098845;28;20268;-61
2023/12/25 02:01:42;;;;;;;2.17;0.88;;;17.90;57.60;;;;;;5096986;28;20329;-62
2023/12/25 02:04:09;;;;;;;1.45;0.90;;;18.00;57.70;;;;;;5097969;28;20217;-62
2023/12/25 02:06:36;;;;;;;1.83;0.90;;;18.00;57.70;;;;;;5098728;28;20216;-62
2023/12/25 02:09:04;;;;;;;2.10;0.63;;;18.00;57.80;;;;;;5098772;28;20323;-62
2023/12/25 02:11:30;;;;;;;2.15;0.73;;;18.00;57.80;;;;;;5097887;28;20300;-62
2023/12/25 02:13:57;;;;;;;2.20;0.98;;;17.90;58.30;;;;;;5098432;28;20789;-62
2023/12/25 02:16:26;;;;;;;2.67;0.90;;;18.00;57.80;;;;;;5098548;28;20758;-62
2023/12/25 02:18:54;;;;;;;1.50;0.90;;;18.00;57.80;;;;;;5098245;28;20273;-62
2023/12/25 02:21:21;;;;;;;1.98;1.08;;;17.90;57.80;;;;;;5098579;28;20300;-61
2023/12/25 02:23:53;;;;;;;2.35;1.13;;;18.00;58.50;;;;;;5098470;28;20300;-61
2023/12/25 02:26:21;;;;;;;1.77;0.65;;;17.90;57.80;;;;;;5098232;28;20312;-62
2023/12/25 02:28:48;;;;;;;2.42;0.98;;;17.90;57.80;;;;;;5098315;28;20284;-62
2023/12/25 02:31:15;;;;;;;2.90;0.85;;;18.00;57.80;;;;;;5098444;28;20300;-62
2023/12/25 02:33:41;;;;;;;2.47;1.00;;;18.00;57.80;;;;;;5098229;28;20196;-61
2023/12/25 02:36:08;;;;;;;3.13;0.73;;;18.00;57.80;;;;;;5096475;28;20766;-61
2023/12/25 02:38:35;;;;;;;3.15;1.00;;;17.90;58.50;;;;;;5094933;28;20273;-62
2023/12/25 02:41:02;;;;;;;2.72;0.90;;;17.90;57.80;;;;;;5094838;28;20300;-61
2023/12/25 02:43:30;;;;;;;4.18;1.10;;;18.00;58.50;;;;;;5095000;28;20265;-61
2023/12/25 02:45:57;;;;;;;1.45;0.90;;;17.90;57.80;;;;;;5095380;28;20301;-61
2023/12/25 02:48:24;;;;;;;4.25;1.20;;;17.90;57.80;;;;;;5094762;28;20182;-62
2023/12/25 02:50:51;;;;;;;2.75;1.13;;;17.90;58.50;;;;;;5095001;28;20321;-61
2023/12/25 02:53:17;;;;;;;2.83;1.00;;;17.90;57.80;;;;;;5094700;28;20666;-61
2023/12/25 02:55:45;;;;;;;5.75;2.45;;;17.90;57.80;;;;;;5094317;28;20309;-62
2023/12/25 02:58:12;;;;;;;5.80;1.88;;;17.90;57.80;;;;;;5095023;28;20236;-62
2023/12/25 03:00:40;;;;;;;6.43;1.73;;;17.90;58.50;;;;;;5094663;28;20277;-61
2023/12/25 03:03:07;;;;;;;2.67;1.58;;;17.90;57.80;;;;;;5094600;28;20196;-62
2023/12/25 03:05:34;;;;;;;4.82;1.60;;;17.90;58.50;;;;;;5094651;28;20226;-62
2023/12/25 03:08:01;;;;;;;3.95;1.30;;;17.90;57.90;;;;;;5094424;28;20647;-62
2023/12/25 03:10:28;;;;;;;2.55;1.55;;;17.90;57.90;;;;;;5094094;28;20656;-61
2023/12/25 03:12:55;;;;;;;5.07;1.70;;;17.90;58.00;;;;;;5094351;28;20317;-62
2023/12/25 03:15:21;;;;;;;3.70;1.80;;;17.90;58.00;;;;;;5094663;28;20284;-61
2023/12/25 03:17:50;;;;;;;3.00;1.42;;;17.90;58.00;;;;;;5094271;28;20204;-62
2023/12/25 03:20:16;;;;;;;3.55;1.60;;;17.90;58.00;;;;;;5094162;28;20231;-61
2023/12/25 03:22:44;;;;;;;2.72;1.50;;;17.90;58.00;;;;;;5094443;28;20301;-62
2023/12/25 03:25:11;;;;;;;4.43;1.42;;;17.90;58.00;;;;;;5093727;28;20729;-62
2023/12/25 03:27:38;;;;;;;4.55;1.60;;;17.90;58.00;;;;;;5094399;28;20569;-61
2023/12/25 03:30:06;;;;;;;2.63;1.58;;;17.90;58.00;;;;;;5094302;28;20192;-61
2023/12/25 03:32:33;;;;;;;5.55;1.70;;;17.90;58.00;;;;;;5093955;28;20300;-62
2023/12/25 03:35:02;;;;;;;4.70;1.48;;;17.90;58.60;;;;;;5093955;28;20186;-62
2023/12/25 03:37:29;;;;;;;5.03;1.70;;;17.90;58.00;;;;;;5094038;28;20213;-61
2023/12/25 03:39:57;;;;;;;2.53;1.50;;;17.90;58.00;;;;;;5093754;28;20292;-62
2023/12/25 03:42:24;;;;;;;4.07;1.40;;;17.90;58.00;;;;;;5093836;28;20246;-62
2023/12/25 03:44:51;;;;;;;3.85;1.50;;;17.90;58.10;;;;;;5094005;28;20300;-61
2023/12/25 03:47:18;;;;;;;2.92;1.40;;;17.90;58.10;;;;;;5093339;28;20300;-62
2023/12/25 03:49:45;;;;;;;3.58;1.27;;;17.90;58.10;;;;;;5093873;28;20192;-62
2023/12/25 03:52:13;;;;;;;2.33;1.27;;;17.90;58.80;;;;;;5094130;28;20218;-62
2023/12/25 03:54:40;;;;;;;4.15;1.70;;;17.90;58.70;;;;;;5093482;28;20220;-62
2023/12/25 03:57:08;;;;;;;3.28;1.33;;;17.90;58.10;;;;;;5093537;28;20301;-62
2023/12/25 03:59:35;;;;;;;4.22;1.13;;;17.90;58.10;;;;;;5093666;28;20192;-62
2023/12/25 04:02:01;;;;;;;2.97;1.30;;;17.90;58.80;;;;;;5093104;28;20225;-62
2023/12/25 04:04:28;;;;;;;4.10;1.50;;;17.80;58.10;;;;;;5093559;28;20308;-62
2023/12/25 04:06:55;;;;;;;3.33;1.17;;;17.90;58.20;;;;;;5093651;28;20454;-63
2023/12/25 04:09:23;;;;;;;4.32;1.30;;;17.80;58.10;;;;;;5092910;28;20544;-62
2023/12/25 04:11:50;;;;;;;4.05;1.30;;;17.90;58.10;;;;;;5093048;28;20304;-62
2023/12/25 04:14:17;;;;;;;3.15;1.10;;;17.90;58.10;;;;;;5093526;28;20276;-62
2023/12/25 04:16:44;;;;;;;4.18;1.30;;;17.90;58.10;;;;;;5093191;28;20301;-61
2023/12/25 04:19:10;;;;;;;3.03;1.25;;;17.90;58.10;;;;;;5093116;28;20289;-61
2023/12/25 04:21:37;;;;;;;4.60;1.15;;;17.90;58.80;;;;;;5093148;28;20300;-62
2023/12/25 04:24:05;;;;;;;3.92;1.20;;;17.90;58.30;;;;;;5092864;28;20210;-62
2023/12/25 04:26:33;;;;;;;3.72;1.17;;;17.90;58.20;;;;;;5093352;28;20302;-62
2023/12/25 04:29:00;;;;;;;6.22;1.42;;;17.90;58.20;;;;;;5092877;28;20225;-62
2023/12/25 04:31:26;;;;;;;4.10;1.42;;;17.80;58.20;;;;;;5092805;28;20302;-61
2023/12/25 04:33:53;;;;;;;5.35;1.30;;;17.80;58.10;;;;;;5093035;28;20280;-62
2023/12/25 04:36:20;;;;;;;3.70;1.50;;;17.80;58.20;;;;;;5093009;28;20305;-61
2023/12/25 04:38:47;;;;;;;2.83;1.20;;;17.80;58.20;;;;;;5092771;28;20435;-62
2023/12/25 04:41:14;;;;;;;4.38;1.25;;;17.80;58.30;;;;;;5093314;28;20222;-62
2023/12/25 04:43:42;;;;;;;2.10;1.17;;;17.80;58.30;;;;;;5092907;28;20192;-62
2023/12/25 04:46:09;;;;;;;3.75;1.30;;;17.80;58.30;;;;;;5092581;28;20240;-62
2023/12/25 04:48:36;;;;;;;2.55;0.88;;;17.80;58.30;;;;;;5092832;28;20236;-61
2023/12/25 04:51:03;;;;;;;3.00;1.15;;;17.80;58.30;;;;;;5092532;28;20305;-62
2023/12/25 04:53:31;;;;;;;1.52;1.00;;;17.90;58.40;;;;;;5092056;28;20690;-62
2023/12/25 04:55:58;;;;;;;2.05;1.10;;;17.80;58.30;;;;;;5092502;28;20214;-62
2023/12/25 04:58:25;;;;;;;2.67;1.17;;;17.80;58.30;;;;;;5092697;28;20202;-61
2023/12/25 05:00:53;;;;;;;2.33;0.90;;;17.80;58.30;;;;;;5091878;28;20218;-62
2023/12/25 05:03:21;;;;;;;2.28;1.20;;;17.80;58.30;;;;;;5092965;28;20192;-62
2023/12/25 05:05:48;;;;;;;2.47;1.02;;;17.80;59.00;;;;;;5092465;28;20214;-62
2023/12/25 05:08:15;;;;;;;3.42;1.02;;;17.80;58.30;;;;;;5092158;28;20182;-62
2023/12/25 05:10:42;;;;;;;2.45;1.10;;;17.80;58.30;;;;;;5092426;28;20198;-62
2023/12/25 05:13:09;;;;;;;2.53;1.10;;;17.80;58.30;;;;;;5092049;28;20704;-62
2023/12/25 05:15:36;;;;;;;3.00;1.20;;;17.80;59.00;;;;;;5092480;28;20276;-62
2023/12/25 05:18:04;;;;;;;1.83;0.95;;;17.80;58.30;;;;;;5092083;28;20656;-61
2023/12/25 05:20:31;;;;;;;3.28;1.30;;;17.80;58.40;;;;;;5092130;28;20186;-61
2023/12/25 05:22:58;;;;;;;2.55;1.00;;;17.80;59.00;;;;;;5092095;28;20273;-62
2023/12/25 05:25:25;;;;;;;3.00;0.90;;;17.80;58.40;;;;;;5092227;28;20302;-62
2023/12/25 05:27:52;;;;;;;2.45;1.23;;;17.80;58.30;;;;;;5092382;28;20299;-62
2023/12/25 05:30:19;;;;;;;1.95;0.98;;;17.80;58.30;;;;;;5091925;28;20183;-62
2023/12/25 05:32:45;;;;;;;1.52;0.80;;;17.80;58.30;;;;;;5092504;28;20217;-62
2023/12/25 05:35:14;;;;;;;2.20;1.02;;;17.80;58.40;;;;;;5092409;28;20285;-60
2023/12/25 05:37:41;;;;;;;1.70;0.95;;;17.80;58.40;;;;;;5091697;28;20707;-62
2023/12/25 05:40:09;;;;;;;3.08;1.00;;;17.80;58.30;;;;;;5092546;28;20186;-62
2023/12/25 05:42:35;;;;;;;2.40;0.90;;;17.80;58.20;;;;;;5092317;28;20289;-62
2023/12/25 05:45:02;;;;;;;2.17;0.95;;;17.90;58.40;;;;;;5091550;28;20706;-61
2023/12/25 05:47:29;;;;;;;1.75;0.82;;;18.00;59.10;;;;;;5092087;28;20217;-62
2023/12/25 05:49:56;;;;;;;2.88;0.93;;;18.10;58.50;;;;;;5092028;28;20247;-62
2023/12/25 05:52:25;;;;;;;1.40;0.75;;;18.20;58.30;;;;;;5091470;28;20218;-62
2023/12/25 05:54:52;;;;;;;1.88;0.80;;;18.40;58.20;;;;;;5092108;28;20190;-62
2023/12/25 05:57:19;;;;;;;0.93;0.80;;;18.50;58.00;;;;;;5092008;28;20214;-62
2023/12/25 05:59:45;;;;;;;2.20;0.88;;;18.60;57.70;;;;;;5091698;28;20273;-62
2023/12/25 06:02:13;;;;;;;1.60;0.73;;;18.80;57.60;;;;;;5091965;28;20299;-62
2023/12/25 06:04:40;;;;;;;2.25;0.70;;;18.90;58.00;;;;;;5091739;28;20218;-62
2023/12/25 06:07:07;;;;;;;2.42;1.00;;;19.10;57.10;;;;;;5091901;28;20214;-62
2023/12/25 06:09:35;;;;;;;1.48;0.63;;;19.20;56.90;;;;;;5091674;28;20194;-62
2023/12/25 06:12:02;;;;;;;1.92;0.80;;;19.40;57.40;;;;;;5092961;28;20822;-62
2023/12/25 06:14:29;;;;;;;1.38;0.68;;;19.50;56.50;;;;;;5095123;28;20719;-62
2023/12/25 06:16:55;;;;;;;1.23;0.82;;;19.60;56.30;;;;;;5095840;28;20214;-62
2023/12/25 06:19:23;;;;;;;1.63;0.70;;;19.70;56.10;;;;;;5095767;28;20265;-62
2023/12/25 06:21:50;;;;;;;1.15;0.70;;;19.90;55.90;;;;;;5095430;28;20249;-62
2023/12/25 06:24:17;;;;;;;1.15;0.60;;;20.00;55.60;;;;;;5095570;28;20232;-62
2023/12/25 06:26:45;;;;;;;2.20;0.80;;;20.10;56.30;;;;;;5095463;28;20232;-62
2023/12/25 06:29:12;;;;;;;0.95;0.60;;;20.20;56.20;;;;;;5095118;28;20186;-62
2023/12/25 06:31:39;;;;;;;1.83;0.88;;;20.30;56.00;;;;;;5095499;28;20301;-62
2023/12/25 06:34:06;;;;;;;1.65;0.60;;;20.40;55.80;;;;;;5095432;28;20272;-62
2023/12/25 06:36:33;;;;;;;0.73;0.50;;;20.50;55.60;;;;;;5094774;28;20313;-62
2023/12/25 06:39:00;;;;;;;0.70;0.50;;;20.60;54.90;;;;;;5094999;28;20192;-62
2023/12/25 06:41:26;;;;;;;1.25;0.70;;;20.70;54.70;;;;;;5095279;28;20308;-62
2023/12/25 06:43:55;;;;;;;0.85;0.45;;;20.70;54.60;;;;;;5094854;28;20269;-62
2023/12/25 06:46:21;;;;;;;1.30;0.70;;;20.80;55.20;;;;;;5095308;28;20233;-62
2023/12/25 06:48:48;;;;;;;1.88;0.88;;;20.90;54.30;;;;;;5095137;28;20277;-62
2023/12/25 06:51:15;;;;;;;1.83;0.82;;;21.00;54.20;;;;;;5094450;28;20218;-62
2023/12/25 06:53:42;;;;;;;1.95;0.90;;;21.00;54.10;;;;;;5095149;28;20187;-62
2023/12/25 06:56:10;;;;;;;1.30;0.60;;;21.10;54.00;;;;;;5094973;28;20795;-62
2023/12/25 06:58:37;;;;;;;4.18;0.68;;;21.10;53.80;;;;;;5094551;28;20196;-62
2023/12/25 07:01:06;;;;;;;1.23;0.57;;;21.20;53.70;;;;;;5094440;28;20221;-62
2023/12/25 07:03:33;;;;;;;1.10;0.65;;;21.30;53.60;;;;;;5094641;28;20640;-62
2023/12/25 07:06:00;;;;;;;1.08;0.80;;;21.30;54.10;;;;;;5094301;28;20221;-62
2023/12/25 07:08:27;;;;;;;2.38;0.82;;;21.30;53.40;;;;;;5094714;28;20280;-62
2023/12/25 07:10:54;;;;;;;2.20;0.70;;;21.40;53.40;;;;;;5094442;28;20193;-62
2023/12/25 07:13:21;;;;;;;0.90;0.60;;;21.40;53.30;;;;;;5094217;28;20230;-62
2023/12/25 07:15:50;;;;;;;1.58;0.50;;;21.50;53.10;;;;;;5094538;28;20202;-62
2023/12/25 07:18:18;;;;;;;0.95;0.63;;;21.60;53.10;;;;;;5094558;28;20289;-62
2023/12/25 07:20:45;;;;;;;1.30;0.50;;;21.60;52.90;;;;;;5094195;28;20300;-62
2023/12/25 07:23:13;;;;;;;1.63;0.60;;;21.70;52.80;;;;;;5094016;28;20269;-62
2023/12/25 07:25:39;;;;;;;0.75;0.60;;;21.70;53.30;;;;;;5094371;28;20218;-62
2023/12/25 07:28:06;;;;;;;1.98;0.60;;;21.60;52.60;;;;;;5093998;28;20283;-62
2023/12/25 07:30:32;;;;;;;0.85;0.47;;;21.70;52.70;;;;;;5094237;28;20285;-62
2023/12/25 07:32:59;;;;;;;1.75;0.50;;;21.70;52.70;;;;;;5094455;28;20214;-62
2023/12/25 07:35:27;;;;;;;1.42;0.50;;;21.60;52.60;;;;;;5093967;28;20293;-62
2023/12/25 07:37:54;;;;;;;0.82;0.60;;;21.50;52.70;;;;;;5093945;28;20771;-62
2023/12/25 07:40:21;;;;;;;0.60;0.52;;;21.40;52.80;;;;;;5094208;28;20182;-62
2023/12/25 07:42:48;;;;;;;1.35;0.60;;;21.30;52.90;;;;;;5093678;28;20213;-62
2023/12/25 07:45:15;;;;;;;1.20;0.50;;;21.20;53.00;;;;;;5093656;28;20564;-62
2023/12/25 07:47:42;;;;;;;1.33;0.85;;;21.10;53.10;;;;;;5094074;28;20304;-62
2023/12/25 07:50:10;;;;;;;0.90;0.57;;;21.00;53.20;;;;;;5093607;28;20620;-62
2023/12/25 07:52:38;;;;;;;1.08;0.50;;;20.90;53.20;;;;;;5093933;28;20214;-63
2023/12/25 07:55:05;;;;;;;0.73;0.40;;;20.80;53.40;;;;;;5093832;28;20281;-62
2023/12/25 07:57:32;;;;;;;1.08;0.50;;;20.70;53.50;;;;;;5093262;28;20296;-62
2023/12/25 07:59:59;;;;;;;1.45;0.50;;;20.60;53.70;;;;;;5093661;28;20182;-62
2023/12/25 08:02:26;;;;;;;1.50;0.70;;;20.60;53.80;;;;;;5093754;28;20260;-62
2023/12/25 08:04:52;;;;;;;1.38;0.50;;;20.50;53.90;;;;;;5093281;28;20288;-62
2023/12/25 08:07:19;;;;;;;0.85;0.70;;;20.60;54.70;;;;;;5093797;28;20309;-62
2023/12/25 08:09:48;;;;;;;1.40;0.45;;;20.60;54.10;;;;;;5093671;28;20272;-62
2023/12/25 08:12:15;;;;;;;0.90;0.47;;;20.70;54.00;;;;;;5093046;28;20240;-62
2023/12/25 08:14:42;;;;;;;0.93;0.40;;;20.80;54.00;;;;;;5093562;28;20277;-62
2023/12/25 08:17:09;;;;;;;1.33;0.47;;;20.90;53.90;;;;;;5093225;28;20245;-62
2023/12/25 08:19:36;;;;;;;0.55;0.40;;;20.90;53.70;;;;;;5092763;28;20190;-62
2023/12/25 08:22:03;;;;;;;1.67;0.60;;;21.00;54.20;;;;;;5093420;28;20224;-62
2023/12/25 08:24:30;;;;;;;1.10;0.50;;;21.10;53.40;;;;;;5093273;28;20273;-62
2023/12/25 08:26:58;;;;;;;3.20;0.65;;;21.10;53.30;;;;;;5092761;28;20327;-62
2023/12/25 08:29:25;;;;;;;1.40;0.65;;;21.10;53.20;;;;;;5092861;28;20910;-62
2023/12/25 08:31:52;;;;;;;1.27;0.60;;;21.10;53.30;;;;;;5093188;28;20214;-62
2023/12/25 08:34:19;;;;;;;0.73;0.60;;;21.10;53.30;;;;;;5092129;28;20232;-62
2023/12/25 08:36:46;;;;;;;1.63;0.60;;;21.00;54.00;;;;;;5092912;28;20249;-62
2023/12/25 08:39:13;;;;;;;0.98;0.50;;;20.90;53.20;;;;;;5093054;28;20288;-62
2023/12/25 08:41:40;;;;;;;0.95;0.60;;;20.90;53.30;;;;;;5092602;28;20300;-62
2023/12/25 08:44:09;;;;;;;1.05;0.50;;;20.80;53.40;;;;;;5093080;28;20225;-62
2023/12/25 08:46:36;;;;;;;1.48;0.63;;;20.70;53.50;;;;;;5092668;28;20233;-62
2023/12/25 08:49:03;;;;;;;1.52;0.60;;;20.60;53.50;;;;;;5092514;28;20288;-62
2023/12/25 08:51:30;;;;;;;1.73;0.60;;;20.60;53.70;;;;;;5092837;28;20305;-62
2023/12/25 08:53:57;;;;;;;1.52;0.68;;;20.50;53.70;;;;;;5092439;28;20652;-62
2023/12/25 08:56:24;;;;;;;1.80;0.70;;;20.50;53.80;;;;;;5092135;28;20552;-63
2023/12/25 08:58:51;;;;;;;1.17;0.68;;;20.40;53.90;;;;;;5092721;28;20186;-62
2023/12/25 09:01:22;;;;;;;1.42;0.70;;;20.30;54.60;;;;;;5092374;28;20763;-62
2023/12/25 09:03:49;;;;;;;1.45;0.73;;;20.30;54.10;;;;;;5092001;28;20723;-62
2023/12/25 09:06:16;;;;;;;1.67;0.73;;;20.20;54.20;;;;;;5092500;28;20234;-62
2023/12/25 09:08:43;;;;;;;2.55;1.05;;;20.10;54.20;;;;;;5092554;28;20270;-62
2023/12/25 09:11:11;;;;;;;1.48;0.60;;;20.10;54.90;;;;;;5092301;28;20273;-62
2023/12/25 09:13:37;;;;;;;1.88;0.60;;;20.00;54.30;;;;;;5092354;28;20336;-62
2023/12/25 09:16:05;;;;;;;1.23;0.80;;;20.00;54.50;;;;;;5092431;28;20284;-62
2023/12/25 09:18:34;;;;;;;1.73;0.70;;;19.90;54.50;;;;;;5092154;28;20190;-62
2023/12/25 09:21:00;;;;;;;1.10;0.60;;;19.90;54.70;;;;;;5092328;28;20277;-62
2023/12/25 09:23:27;;;;;;;1.00;0.65;;;19.80;55.30;;;;;;5092156;28;20723;-62
2023/12/25 09:25:54;;;;;;;1.10;0.85;;;19.80;54.80;;;;;;5092139;28;20297;-62
2023/12/25 09:28:21;;;;;;;1.58;0.90;;;19.70;54.80;;;;;;5092132;28;20209;-62
2023/12/25 09:30:48;;;;;;;0.95;0.63;;;19.70;55.50;;;;;;5092443;28;20281;-62
2023/12/25 09:33:15;;;;;;;1.50;0.70;;;19.60;55.00;;;;;;5092378;28;20301;-62
2023/12/25 09:35:43;;;;;;;0.82;0.50;;;19.60;55.20;;;;;;5092337;28;20187;-62
2023/12/25 09:38:10;;;;;;;1.42;0.70;;;19.60;55.20;;;;;;5092189;28;20522;-62
2023/12/25 09:40:37;;;;;;;0.88;0.52;;;19.60;55.20;;;;;;5092146;28;20186;-62
2023/12/25 09:43:04;;;;;;;0.80;0.50;;;19.50;55.20;;;;;;5091871;28;20245;-62
2023/12/25 09:45:36;;;;;;;0.93;0.73;;;19.50;55.20;;;;;;5092947;28;20269;-62
2023/12/25 09:48:04;;;;;;;1.50;0.63;;;19.50;55.20;;;;;;5096203;28;20305;-62
2023/12/25 09:50:32;;;;;;;1.92;0.70;;;19.40;55.10;;;;;;5096186;28;20273;-62
2023/12/25 09:53:01;;;;;;;0.90;0.70;;;19.40;55.20;;;;;;5096161;28;20300;-62
2023/12/25 09:55:29;;;;;;;1.33;0.60;;;19.30;55.20;;;;;;5096049;28;20558;-62
2023/12/25 09:57:57;;;;;;;0.82;0.60;;;19.30;55.40;;;;;;5095629;28;20224;-62
2023/12/25 10:00:24;;;;;;;1.80;0.88;;;19.30;55.40;;;;;;5096017;28;20190;-62
2023/12/25 10:02:51;;;;;;;1.05;0.60;;;19.20;55.40;;;;;;5096316;28;20306;-62
2023/12/25 10:05:19;;;;;;;1.00;0.70;;;19.20;55.50;;;;;;5095815;28;20273;-62
2023/12/25 10:07:46;;;;;;;3.35;0.85;;;19.20;55.60;;;;;;5095813;28;20237;-62
2023/12/25 10:10:14;;;;;;;0.82;0.50;;;19.20;55.70;;;;;;5095968;28;20632;-62
2023/12/25 10:12:45;;;;;;;1.27;0.68;;;19.20;55.70;;;;;;5095260;28;20606;-62
2023/12/25 10:15:13;;;;;;;1.13;0.60;;;19.10;55.70;;;;;;5096026;28;20416;-62
2023/12/25 10:17:40;;;;;;;1.13;0.63;;;19.10;55.70;;;;;;5095653;28;20214;-62
2023/12/25 10:20:08;;;;;;;0.75;0.50;;;19.10;56.40;;;;;;5095662;28;20289;-62
2023/12/25 10:22:38;;;;;;;1.00;0.57;;;19.10;55.90;;;;;;5095478;28;20263;-62
2023/12/25 10:25:09;;;;;;;1.95;0.88;;;19.10;55.90;;;;;;5095491;28;20190;-62
2023/12/25 10:27:39;;;;;;;1.15;0.55;;;19.00;55.80;;;;;;5095015;28;20707;-62
2023/12/25 10:30:16;;;;;;;0.93;0.60;;;19.00;55.90;;;;;;5095301;28;20220;-62
2023/12/25 10:32:43;;;;;;;1.27;0.57;;;19.00;56.00;;;;;;5095187;28;20220;-62
2023/12/25 10:35:11;;;;;;;1.15;0.60;;;19.00;56.00;;;;;;5095499;28;20194;-62
2023/12/25 10:37:39;;;;;;;0.75;0.55;;;19.00;56.10;;;;;;5095082;28;20591;-62
2023/12/25 10:40:31;;;;;;;1.25;0.60;;;19.00;56.10;;;;;;5094872;28;20682;-62
2023/12/25 10:43:00;;;;;;;0.93;0.57;;;18.90;56.10;;;;;;5080282;28;20210;-62
2023/12/25 10:45:28;;;;;;;0.82;0.60;;;18.90;56.20;;;;;;5095108;28;20281;-62
2023/12/25 10:47:56;;;;;;;1.23;0.70;;;18.90;56.30;;;;;;5094808;28;20325;-62
2023/12/25 10:50:25;;;;;;;0.98;0.50;;;18.90;56.30;;;;;;5095157;28;20598;-62
2023/12/25 10:52:53;;;;;;;1.83;0.63;;;18.90;56.30;;;;;;5094687;28;20217;-61
2023/12/25 10:55:26;;;;;;;0.98;0.60;;;18.80;56.30;;;;;;5094737;28;20277;-62
2023/12/25 10:57:53;;;;;;;1.67;0.80;;;18.90;56.40;;;;;;5093985;28;20304;-62
2023/12/25 11:00:23;;;;;;;1.13;0.60;;;18.90;56.50;;;;;;5094999;28;20281;-62
2023/12/25 11:02:55;;;;;;;1.38;0.68;;;18.80;56.40;;;;;;5094423;28;20214;-62
2023/12/25 11:05:22;;;;;;;1.23;0.75;;;18.80;56.40;;;;;;5094556;28;20648;-62
2023/12/25 11:07:50;;;;;;;1.33;0.70;;;18.80;56.40;;;;;;5094747;28;20233;-62
2023/12/25 11:10:17;;;;;;;1.83;0.70;;;18.80;56.60;;;;;;5094274;28;20187;-62
2023/12/25 11:12:45;;;;;;;0.95;0.63;;;18.80;56.50;;;;;;5094148;28;20317;-62
2023/12/25 11:15:12;;;;;;;1.35;0.60;;;18.70;56.50;;;;;;5094995;28;20294;-62
2023/12/25 11:17:40;;;;;;;1.95;0.70;;;18.70;56.50;;;;;;5094112;28;20300;-62
2023/12/25 11:20:11;;;;;;;1.77;0.70;;;18.70;56.60;;;;;;5094689;28;20285;-62
2023/12/25 11:22:40;;;;;;;1.70;0.70;;;18.70;56.60;;;;;;5094554;28;20297;-62
2023/12/25 11:25:14;;;;;;;1.30;0.80;;;18.70;56.60;;;;;;5094197;28;20194;-62
2023/12/25 11:27:42;;;;;;;1.17;0.70;;;18.70;56.60;;;;;;5094164;28;20240;-62
2023/12/25 11:30:10;;;;;;;2.20;1.00;;;18.70;56.70;;;;;;5094314;28;20194;-61
2023/12/25 11:32:37;;;;;;;1.38;0.75;;;18.70;56.60;;;;;;5094099;28;20222;-62
2023/12/25 11:35:08;;;;;;;1.85;0.60;;;18.70;56.70;;;;;;5094155;28;20269;-62
2023/12/25 11:37:35;;;;;;;1.30;0.60;;;18.70;56.70;;;;;;5094254;28;20649;-62
2023/12/25 11:40:05;;;;;;;1.90;0.70;;;18.70;56.80;;;;;;5093413;28;20304;-62
2023/12/25 11:42:33;;;;;;;1.23;0.80;;;18.70;56.80;;;;;;5094104;28;20229;-62
2023/12/25 11:45:02;;;;;;;0.75;0.52;;;18.70;56.80;;;;;;5094047;28;20193;-62
2023/12/25 11:47:39;;;;;;;2.20;0.70;;;18.60;56.70;;;;;;5093185;28;20226;-62
2023/12/25 11:50:08;;;;;;;1.80;0.70;;;18.60;56.70;;;;;;5093630;28;20207;-62
2023/12/25 11:52:55;;;;;;;1.85;0.80;;;18.60;56.80;;;;;;5093865;28;20305;-62
2023/12/25 11:55:23;;;;;;;1.30;0.70;;;18.60;57.40;;;;;;5093598;28;20185;-62
2023/12/25 11:57:50;;;;;;;2.42;0.90;;;18.60;57.40;;;;;;5093706;28;20305;-62
2023/12/25 12:00:18;;;;;;;1.02;0.50;;;18.70;56.80;;;;;;5093434;28;20194;-62
2023/12/25 12:02:45;;;;;;;1.13;0.70;;;18.70;56.80;;;;;;5093585;28;20248;-62
2023/12/25 12:05:14;;;;;;;1.13;0.50;;;18.80;56.90;;;;;;5093366;28;20188;-62
2023/12/25 12:07:41;;;;;;;1.05;0.57;;;19.00;57.00;;;;;;5093261;28;20232;-62
2023/12/25 12:10:10;;;;;;;1.30;0.60;;;19.10;56.80;;;;;;5093215;28;20273;-62
2023/12/25 12:12:37;;;;;;;1.15;0.70;;;19.20;56.60;;;;;;5093249;28;20271;-62
2023/12/25 12:15:05;;;;;;;1.85;0.70;;;19.30;56.40;;;;;;5093529;28;20285;-62
2023/12/25 12:17:34;;;;;;;2.08;0.80;;;19.50;56.30;;;;;;5093100;28;20300;-62
2023/12/25 12:20:01;;;;;;;1.40;0.50;;;19.60;56.10;;;;;;5093514;28;20243;-62
2023/12/25 12:22:29;;;;;;;2.40;0.68;;;19.80;55.90;;;;;;5093243;28;20305;-62
2023/12/25 12:25:12;;;;;;;1.67;0.80;;;19.90;55.50;;;;;;5092634;28;20651;-62
2023/12/25 12:27:39;;;;;;;1.52;0.80;;;20.00;55.60;;;;;;5092946;28;20776;-62
2023/12/25 12:30:07;;;;;;;1.27;0.50;;;20.20;55.40;;;;;;5093142;28;20190;-62
2023/12/25 12:32:36;;;;;;;3.15;0.70;;;20.30;55.20;;;;;;5092651;28;20300;-63
2023/12/25 12:35:03;;;;;;;1.48;0.70;;;20.50;55.10;;;;;;5093131;28;20284;-62
2023/12/25 12:37:32;;;;;;;2.05;0.70;;;20.60;54.80;;;;;;5092873;28;20692;-62
2023/12/25 12:40:01;;;;;;;2.22;0.70;;;20.70;54.70;;;;;;5092663;28;20280;-62
2023/12/25 12:42:28;;;;;;;1.20;0.70;;;20.80;54.50;;;;;;5092923;28;20217;-62
2023/12/25 12:44:58;;;;;;;1.20;0.70;;;20.90;54.40;;;;;;5093072;28;20186;-62
2023/12/25 12:47:25;;;;;;;1.25;0.60;;;21.00;54.10;;;;;;5092590;28;20241;-62
2023/12/25 12:49:52;;;;;;;1.35;0.60;;;21.10;54.10;;;;;;5092893;28;20277;-62